createdAt,value
2022-07-27T00:01:35.158Z,17.40
2022-07-27T00:04:11.531Z,18.23
2022-07-27T00:06:45.972Z,22.33
2022-07-27T00:09:19.846Z,15.93
2022-07-27T00:11:52.419Z,34.13
2022-07-27T00:14:26.235Z,37.50
2022-07-27T00:17:02.098Z,34.80
2022-07-27T00:19:36.402Z,32.30
2022-07-27T00:22:13.748Z,31.73
2022-07-27T00:24:48.153Z,25.50
2022-07-27T00:27:22.387Z,29.10
2022-07-27T00:29:56.362Z,28.73
2022-07-27T00:32:32.055Z,28.33
2022-07-27T00:35:05.016Z,24.33
2022-07-27T00:37:39.261Z,27.90
2022-07-27T00:40:14.100Z,28.00
2022-07-27T00:42:47.628Z,29.43
2022-07-27T00:45:21.318Z,26.37
2022-07-27T00:47:56.966Z,25.60
2022-07-27T00:50:30.637Z,28.13
2022-07-27T00:53:06.151Z,27.50
2022-07-27T00:55:40.933Z,24.87
2022-07-27T00:58:15.021Z,26.63
2022-07-27T01:00:49.980Z,25.57
2022-07-27T01:03:29.695Z,29.73
2022-07-27T01:06:04.520Z,30.27
2022-07-27T01:08:38.681Z,34.33
2022-07-27T01:11:13.303Z,32.83
2022-07-27T01:13:48.315Z,28.23
2022-07-27T01:16:23.159Z,28.00
2022-07-27T01:18:58.852Z,34.67
2022-07-27T01:21:39.131Z,38.67
2022-07-27T01:24:13.866Z,32.20
2022-07-27T01:26:48.977Z,34.60
2022-07-27T01:29:23.168Z,33.37
2022-07-27T01:31:57.294Z,35.10
2022-07-27T01:34:31.474Z,35.27
2022-07-27T01:37:09.125Z,36.20
2022-07-27T01:39:45.115Z,34.27
2022-07-27T01:42:18.451Z,30.90
2022-07-27T01:44:52.025Z,31.83
2022-07-27T01:47:25.683Z,26.07
2022-07-27T01:49:59.301Z,20.30
2022-07-27T01:52:35.706Z,19.40
2022-07-27T01:55:10.997Z,16.67
2022-07-27T01:57:45.798Z,18.13
2022-07-27T02:00:45.951Z,20.13
2022-07-27T02:03:20.079Z,18.87
2022-07-27T02:08:43.392Z,20.30
2022-07-27T02:11:33.563Z,22.03
2022-07-27T02:14:08.291Z,21.60
2022-07-27T02:16:42.380Z,22.47
2022-07-27T02:19:17.254Z,19.97
2022-07-27T02:21:52.475Z,21.10
2022-07-27T02:24:33.519Z,25.60
2022-07-27T02:27:07.963Z,22.63
2022-07-27T02:29:42.028Z,27.27
2022-07-27T02:32:16.327Z,24.40
2022-07-27T02:34:50.806Z,24.80
2022-07-27T02:37:25.583Z,25.30
2022-07-27T02:40:01.865Z,26.37
2022-07-27T02:42:35.226Z,31.83
2022-07-27T02:45:09.726Z,33.50
2022-07-27T02:47:44.261Z,31.33
2022-07-27T02:50:18.191Z,29.07
2022-07-27T02:52:52.650Z,27.80
2022-07-27T02:55:28.980Z,27.90
2022-07-27T02:58:03.078Z,32.03
2022-07-27T03:00:58.812Z,28.80
2022-07-27T03:03:36.169Z,27.80
2022-07-27T03:06:12.305Z,30.07
2022-07-27T03:08:46.216Z,28.30
2022-07-27T03:11:24.885Z,34.17
2022-07-27T03:13:58.732Z,34.13
2022-07-27T03:16:55.326Z,36.00
2022-07-27T03:19:30.587Z,35.53
2022-07-27T03:22:05.030Z,31.77
2022-07-27T03:24:42.563Z,34.03
2022-07-27T03:27:17.955Z,33.93
2022-07-27T03:29:51.615Z,31.87
2022-07-27T03:32:25.423Z,41.03
2022-07-27T03:34:59.837Z,29.20
2022-07-27T03:37:33.743Z,29.37
2022-07-27T03:40:07.243Z,30.20
2022-07-27T03:42:44.722Z,33.80
2022-07-27T03:45:18.383Z,32.43
2022-07-27T03:47:52.104Z,33.63
2022-07-27T03:50:39.310Z,31.87
2022-07-27T03:53:13.335Z,26.37
2022-07-27T03:55:47.976Z,24.10
2022-07-27T03:58:24.843Z,19.80
2022-07-27T04:00:59.726Z,23.83
2022-07-27T04:03:35.254Z,25.03
2022-07-27T04:06:09.419Z,21.57
2022-07-27T04:08:43.681Z,17.87
2022-07-27T04:11:19.127Z,16.17
2022-07-27T04:13:57.531Z,17.77
2022-07-27T04:16:36.050Z,16.00
2022-07-27T04:19:11.287Z,15.53
2022-07-27T04:21:45.415Z,20.23
2022-07-27T04:24:19.118Z,17.83
2022-07-27T04:26:54.149Z,15.23
2022-07-27T04:29:30.386Z,17.47
2022-07-27T04:32:04.272Z,16.97
2022-07-27T04:34:38.157Z,15.73
2022-07-27T04:37:12.447Z,14.97
2022-07-27T04:39:47.253Z,16.83
2022-07-27T04:42:20.653Z,15.60
2022-07-27T04:45:11.446Z,17.97
2022-07-27T04:47:47.135Z,14.53
2022-07-27T04:50:26.832Z,12.17
2022-07-27T04:53:06.650Z,12.57
2022-07-27T04:55:40.417Z,11.88
2022-07-27T04:58:18.300Z,11.30
2022-07-27T05:00:53.312Z,10.88
2022-07-27T05:03:27.690Z,10.23
2022-07-27T05:06:02.557Z,13.15
2022-07-27T05:08:37.653Z,10.85
2022-07-27T05:11:10.866Z,11.15
2022-07-27T05:13:44.845Z,11.57
2022-07-27T05:16:23.878Z,15.40
2022-07-27T05:19:02.597Z,12.73
2022-07-27T05:21:36.460Z,17.17
2022-07-27T05:24:11.334Z,13.27
2022-07-27T05:26:48.820Z,13.13
2022-07-27T05:29:23.202Z,12.33
2022-07-27T05:31:59.585Z,15.73
2022-07-27T05:34:33.481Z,14.03
2022-07-27T05:37:15.637Z,23.03
2022-07-27T05:39:50.715Z,16.23
2022-07-27T05:42:25.180Z,17.67
2022-07-27T05:45:01.060Z,16.80
2022-07-27T05:47:38.257Z,15.37
2022-07-27T05:50:15.305Z,15.60
2022-07-27T05:52:49.093Z,15.70
2022-07-27T05:55:23.557Z,14.67
2022-07-27T05:57:59.190Z,16.90
2022-07-27T06:00:37.934Z,20.07
2022-07-27T06:03:13.908Z,18.03
2022-07-27T06:05:51.186Z,22.47
2022-07-27T06:08:23.648Z,14.07
2022-07-27T06:10:58.178Z,15.87
2022-07-27T06:13:33.128Z,12.27
2022-07-27T06:16:07.795Z,13.38
2022-07-27T06:18:45.195Z,11.82
2022-07-27T06:21:18.890Z,11.23
2022-07-27T06:23:54.919Z,17.40
2022-07-27T06:29:28.257Z,12.25
2022-07-27T06:32:05.109Z,16.15
2022-07-27T06:34:43.140Z,13.65
2022-07-27T06:37:17.233Z,13.40
2022-07-27T06:39:53.533Z,17.48
2022-07-27T06:42:27.703Z,13.23
2022-07-27T06:45:01.840Z,15.85
2022-07-27T06:47:36.924Z,13.70
2022-07-27T06:50:26.084Z,14.25
2022-07-27T06:53:01.781Z,12.43
2022-07-27T06:55:36.010Z,10.63
2022-07-27T06:58:10.856Z,10.68
2022-07-27T07:00:48.751Z,14.02
2022-07-27T07:03:24.009Z,14.95
2022-07-27T07:06:01.391Z,17.63
2022-07-27T07:08:35.526Z,13.90
2022-07-27T07:11:10.822Z,13.82
2022-07-27T07:13:45.290Z,14.55
2022-07-27T07:16:20.968Z,16.00
2022-07-27T07:18:55.651Z,17.60
2022-07-27T07:21:34.448Z,13.20
2022-07-27T07:24:08.640Z,17.83
2022-07-27T07:26:42.524Z,15.93
2022-07-27T07:29:18.220Z,15.88
2022-07-27T07:31:52.538Z,12.63
2022-07-27T07:34:26.197Z,13.48
2022-07-27T07:37:15.019Z,13.73
2022-07-27T07:39:48.879Z,12.50
2022-07-27T07:42:23.673Z,16.17
2022-07-27T07:44:59.159Z,10.90
2022-07-27T07:47:33.445Z,10.30
2022-07-27T07:50:16.037Z,13.73
2022-07-27T07:52:54.082Z,10.77
2022-07-27T07:55:28.780Z,13.55
2022-07-27T07:58:18.424Z,11.57
2022-07-27T08:00:56.145Z,11.60
2022-07-27T08:03:30.567Z,14.40
2022-07-27T08:06:04.860Z,13.85
2022-07-27T08:08:43.522Z,10.68
2022-07-27T08:11:17.562Z,12.70
2022-07-27T08:13:52.230Z,14.82
2022-07-27T08:16:31.518Z,10.07
2022-07-27T08:19:06.421Z,14.32
2022-07-27T08:21:43.577Z,13.63
2022-07-27T08:24:19.248Z,10.10
2022-07-27T08:26:54.689Z,12.32
2022-07-27T08:29:38.196Z,9.85
2022-07-27T08:32:13.036Z,9.27
2022-07-27T08:34:47.366Z,11.30
2022-07-27T08:37:21.638Z,12.43
2022-07-27T08:42:52.157Z,12.77
2022-07-27T08:45:26.360Z,10.10
2022-07-27T08:48:00.443Z,11.10
2022-07-27T08:50:36.090Z,7.15
2022-07-27T08:53:11.972Z,9.57
2022-07-27T08:55:48.741Z,7.90
2022-07-27T08:58:23.156Z,14.93
2022-07-27T09:00:57.398Z,9.98
2022-07-27T09:03:31.553Z,8.80
2022-07-27T09:06:06.233Z,9.90
2022-07-27T09:08:40.057Z,12.82
2022-07-27T09:11:21.413Z,10.27
2022-07-27T09:14:04.992Z,54.72
2022-07-27T09:17:28.503Z,13.40
2022-07-27T09:19:36.824Z,8.45
2022-07-27T09:22:13.159Z,8.82
2022-07-27T09:25:06.768Z,8.77
2022-07-27T09:27:44.560Z,8.73
2022-07-27T09:30:20.382Z,12.98
2022-07-27T09:33:03.662Z,13.60
2022-07-27T09:35:37.975Z,11.48
2022-07-27T09:38:26.967Z,12.60
2022-07-27T09:41:05.962Z,13.00
2022-07-27T09:46:51.216Z,10.18
2022-07-27T09:49:37.079Z,15.13
2022-07-27T09:52:15.835Z,10.80
2022-07-27T09:54:51.289Z,11.07
2022-07-27T09:57:24.729Z,9.00
2022-07-27T10:00:18.329Z,8.27
2022-07-27T10:02:54.811Z,7.63
2022-07-27T10:05:29.699Z,9.10
2022-07-27T10:08:03.669Z,8.68
2022-07-27T10:10:37.964Z,9.35
2022-07-27T10:13:12.218Z,6.55
2022-07-27T10:15:48.371Z,15.80
2022-07-27T10:18:43.850Z,7.22
2022-07-27T10:21:25.356Z,7.97
2022-07-27T10:24:03.549Z,12.30
2022-07-27T10:26:39.055Z,7.07
2022-07-27T10:29:45.533Z,7.80
2022-07-27T10:32:29.230Z,6.63
2022-07-27T10:35:04.162Z,8.25
2022-07-27T10:37:38.450Z,12.02
2022-07-27T10:40:44.702Z,11.57
2022-07-27T10:43:41.605Z,8.30
2022-07-27T10:46:28.245Z,6.80
2022-07-27T10:49:22.730Z,10.10
2022-07-27T10:52:25.173Z,10.90
2022-07-27T10:55:01.134Z,9.32
2022-07-27T10:57:35.585Z,9.50
2022-07-27T11:00:50.069Z,9.85
2022-07-27T11:03:30.137Z,10.43
2022-07-27T11:06:31.148Z,8.50
2022-07-27T11:11:57.886Z,10.43
2022-07-27T11:14:35.136Z,7.10
2022-07-27T11:20:06.837Z,11.90
2022-07-27T11:23:26.599Z,10.93
2022-07-27T11:25:39.327Z,12.48
2022-07-27T11:28:13.426Z,11.52
2022-07-27T11:30:48.787Z,8.93
2022-07-27T11:33:23.419Z,9.43
2022-07-27T11:36:00.782Z,9.53
2022-07-27T11:38:50.638Z,7.53
2022-07-27T11:42:03.149Z,7.67
2022-07-27T11:44:26.694Z,8.60
2022-07-27T11:47:02.375Z,11.40
2022-07-27T11:49:37.303Z,8.87
2022-07-27T11:52:12.401Z,5.97
2022-07-27T11:54:53.718Z,10.60
2022-07-27T11:57:37.781Z,9.23
2022-07-27T12:00:13.707Z,7.23
2022-07-27T12:02:54.623Z,7.83
2022-07-27T12:05:28.407Z,8.03
2022-07-27T12:08:02.517Z,8.03
2022-07-27T12:10:39.182Z,10.10
2022-07-27T12:13:22.105Z,8.03
2022-07-27T12:16:02.722Z,7.27
2022-07-27T12:18:46.365Z,8.43
2022-07-27T12:21:24.630Z,10.33
2022-07-27T12:24:07.022Z,10.53
2022-07-27T12:26:56.188Z,9.07
2022-07-27T12:29:30.663Z,12.53
2022-07-27T12:32:07.914Z,13.27
2022-07-27T12:34:43.809Z,12.10
2022-07-27T12:37:18.324Z,12.60
2022-07-27T12:39:55.320Z,10.63
2022-07-27T12:42:41.668Z,14.37
2022-07-27T12:45:23.677Z,13.30
2022-07-27T12:48:07.494Z,12.80
2022-07-27T12:50:51.161Z,14.93
2022-07-27T12:53:39.392Z,13.97
2022-07-27T12:56:15.290Z,16.50
2022-07-27T12:59:07.445Z,20.07
2022-07-27T13:01:43.314Z,21.43
2022-07-27T13:04:17.669Z,18.87
2022-07-27T13:06:51.868Z,17.30
2022-07-27T13:09:26.059Z,17.87
2022-07-27T13:12:19.964Z,15.10
2022-07-27T13:15:02.976Z,20.53
2022-07-27T13:17:40.558Z,15.47
2022-07-27T13:20:15.557Z,14.67
2022-07-27T13:22:50.295Z,17.70
2022-07-27T13:25:47.096Z,21.23
2022-07-27T13:28:21.018Z,18.80
2022-07-27T13:31:00.496Z,17.43
2022-07-27T13:33:34.680Z,21.57
2022-07-27T13:36:11.190Z,16.03
2022-07-27T13:38:44.768Z,19.60
2022-07-27T13:41:23.369Z,20.50
2022-07-27T13:43:57.354Z,20.37
2022-07-27T13:46:46.398Z,18.10
2022-07-27T13:49:21.534Z,16.30
2022-07-27T13:51:56.401Z,16.53
2022-07-27T13:54:31.654Z,13.00
2022-07-27T13:57:16.409Z,18.93
2022-07-27T13:59:51.553Z,17.53
2022-07-27T14:02:42.400Z,18.67
2022-07-27T14:05:20.374Z,15.27
2022-07-27T14:07:54.870Z,13.40
2022-07-27T14:10:43.651Z,15.17
2022-07-27T14:13:18.836Z,18.70
2022-07-27T14:16:00.218Z,16.57
2022-07-27T14:18:39.040Z,16.57
2022-07-27T14:21:13.607Z,17.00
2022-07-27T14:23:48.473Z,18.57
2022-07-27T14:26:23.583Z,17.80
2022-07-27T14:29:21.172Z,17.07
2022-07-27T14:31:58.118Z,17.10
2022-07-27T14:34:54.559Z,21.43
2022-07-27T14:37:28.913Z,21.10
2022-07-27T14:40:29.769Z,22.67
2022-07-27T14:43:06.197Z,19.53
2022-07-27T14:45:44.735Z,21.37
2022-07-27T14:49:05.336Z,24.00
2022-07-27T14:51:39.085Z,24.27
2022-07-27T14:54:13.625Z,21.47
2022-07-27T14:56:48.044Z,25.77
2022-07-27T14:59:22.283Z,31.43
2022-07-27T15:01:56.497Z,25.63
2022-07-27T15:04:30.625Z,29.33
2022-07-27T15:07:08.111Z,29.23
2022-07-27T15:09:42.764Z,23.83
2022-07-27T15:12:18.756Z,25.90
2022-07-27T15:14:55.565Z,29.17
2022-07-27T15:17:29.468Z,23.13
2022-07-27T15:20:26.916Z,25.50
2022-07-27T15:23:04.532Z,25.70
2022-07-27T15:25:39.766Z,21.87
2022-07-27T15:28:14.948Z,22.60
2022-07-27T15:30:50.723Z,21.87
2022-07-27T15:33:24.266Z,29.00
2022-07-27T15:35:58.703Z,25.63
2022-07-27T15:38:34.767Z,22.10
2022-07-27T15:41:08.645Z,22.83
2022-07-27T15:43:46.910Z,20.87
2022-07-27T15:46:27.301Z,20.43
2022-07-27T15:49:03.781Z,20.13
2022-07-27T15:51:40.817Z,19.80
2022-07-27T15:54:17.866Z,18.83
2022-07-27T15:56:52.009Z,16.53
2022-07-27T15:59:28.263Z,13.93
2022-07-27T16:02:02.469Z,15.73
2022-07-27T16:04:37.198Z,16.07
2022-07-27T16:07:20.230Z,14.60
2022-07-27T16:09:56.343Z,14.27
2022-07-27T16:13:03.129Z,12.70
2022-07-27T16:15:53.559Z,12.33
2022-07-27T16:18:28.356Z,13.27
2022-07-27T16:21:02.771Z,11.67
2022-07-27T16:23:36.953Z,11.03
2022-07-27T16:26:12.756Z,14.23
2022-07-27T16:28:48.995Z,13.83
2022-07-27T16:31:24.465Z,12.60
2022-07-27T16:33:59.831Z,14.93
2022-07-27T16:36:38.637Z,11.17
2022-07-27T16:39:38.801Z,11.67
2022-07-27T16:42:17.667Z,11.23
2022-07-27T16:44:51.750Z,16.03
2022-07-27T16:47:26.185Z,18.13
2022-07-27T16:50:00.169Z,10.80
2022-07-27T16:52:34.665Z,11.47
2022-07-27T16:55:10.208Z,13.63
2022-07-27T16:57:46.801Z,12.67
2022-07-27T17:00:21.430Z,12.37
2022-07-27T17:02:57.131Z,10.60
2022-07-27T17:05:31.847Z,17.20
2022-07-27T17:08:05.210Z,12.90
2022-07-27T17:10:39.103Z,14.70
2022-07-27T17:13:15.865Z,14.10
2022-07-27T17:15:50.297Z,16.30
2022-07-27T17:18:25.350Z,20.17
2022-07-27T17:21:03.126Z,15.63
2022-07-27T17:23:40.005Z,18.80
2022-07-27T17:26:14.568Z,17.17
2022-07-27T17:28:50.485Z,15.83
2022-07-27T17:31:25.247Z,16.87
2022-07-27T17:34:15.495Z,15.10
2022-07-27T17:37:07.805Z,18.30
2022-07-27T17:39:41.592Z,18.37
2022-07-27T17:42:16.104Z,18.60
2022-07-27T17:44:51.313Z,19.40
2022-07-27T17:47:24.869Z,20.23
2022-07-27T17:49:58.860Z,16.90
2022-07-27T17:52:36.596Z,21.17
2022-07-27T17:55:13.474Z,20.80
2022-07-27T17:58:00.727Z,20.87
2022-07-27T18:00:37.165Z,20.63
2022-07-27T18:03:13.051Z,18.60
2022-07-27T18:05:47.830Z,18.77
2022-07-27T18:08:22.716Z,19.53
2022-07-27T18:10:55.752Z,24.83
2022-07-27T18:13:39.478Z,24.40
2022-07-27T18:16:16.122Z,21.33
2022-07-27T18:21:36.648Z,24.00
2022-07-27T18:24:11.458Z,24.43
2022-07-27T18:26:45.824Z,21.93
2022-07-27T18:29:20.159Z,25.47
2022-07-27T18:31:56.285Z,19.23
2022-07-27T18:34:30.369Z,23.37
2022-07-27T18:37:03.915Z,23.37
2022-07-27T18:39:38.052Z,19.40
2022-07-27T18:42:11.942Z,21.90
2022-07-27T18:44:45.121Z,22.47
2022-07-27T18:47:20.652Z,21.70
2022-07-27T18:49:55.045Z,22.27
2022-07-27T18:52:30.304Z,20.47
2022-07-27T18:55:05.007Z,25.70
2022-07-27T19:00:25.015Z,19.63
2022-07-27T19:03:07.562Z,21.70
2022-07-27T19:05:45.929Z,22.03
2022-07-27T19:08:19.379Z,22.23
2022-07-27T19:11:10.811Z,25.53
2022-07-27T19:14:06.797Z,20.43
2022-07-27T19:16:40.399Z,21.07
2022-07-27T19:19:22.321Z,20.10
2022-07-27T19:22:17.307Z,20.40
2022-07-27T19:24:54.778Z,20.27
2022-07-27T19:27:29.513Z,19.53
2022-07-27T19:30:03.674Z,21.73
2022-07-27T19:32:37.334Z,21.63
2022-07-27T19:35:14.680Z,22.23
2022-07-27T19:37:48.866Z,21.60
2022-07-27T19:43:17.198Z,19.53
2022-07-27T19:45:53.435Z,23.30
2022-07-27T19:48:29.324Z,22.00
2022-07-27T19:51:10.087Z,19.73
2022-07-27T19:53:44.572Z,20.23
2022-07-27T19:56:18.025Z,23.43
2022-07-27T19:58:51.736Z,23.37
2022-07-27T20:01:24.948Z,23.00
2022-07-27T20:03:58.278Z,22.63
2022-07-27T20:06:35.713Z,21.57
2022-07-27T20:09:09.808Z,22.73
2022-07-27T20:12:04.759Z,24.87
2022-07-27T20:14:38.751Z,25.60
2022-07-27T20:17:12.302Z,23.23
2022-07-27T20:19:46.601Z,21.63
2022-07-27T20:22:21.970Z,22.97
2022-07-27T20:24:55.612Z,21.97
2022-07-27T20:27:29.703Z,23.60
2022-07-27T20:30:03.304Z,25.07
2022-07-27T20:32:37.554Z,23.27
2022-07-27T20:35:11.347Z,25.50
2022-07-27T20:37:47.579Z,23.70
2022-07-27T20:40:20.905Z,26.50
2022-07-27T20:42:55.035Z,27.40
2022-07-27T20:45:50.202Z,25.20
2022-07-27T20:51:10.539Z,20.73
2022-07-27T20:53:46.547Z,28.57
2022-07-27T20:56:20.069Z,24.63
2022-07-27T20:58:53.842Z,22.20
2022-07-27T21:01:27.539Z,22.87
2022-07-27T21:04:01.157Z,22.63
2022-07-27T21:06:35.464Z,23.17
2022-07-27T21:09:10.201Z,24.67
2022-07-27T21:11:44.271Z,22.53
2022-07-27T21:14:18.253Z,26.77
2022-07-27T21:17:13.028Z,24.63
2022-07-27T21:19:46.853Z,19.40
2022-07-27T21:22:21.043Z,23.33
2022-07-27T21:24:55.218Z,26.03
2022-07-27T21:27:29.252Z,25.53
2022-07-27T21:30:05.300Z,26.47
2022-07-27T21:32:39.029Z,23.00
2022-07-27T21:35:13.828Z,26.57
2022-07-27T21:40:36.059Z,25.53
2022-07-27T21:43:27.619Z,29.60
2022-07-27T21:46:02.088Z,21.77
2022-07-27T21:48:59.342Z,26.20
2022-07-27T21:51:33.228Z,23.77
2022-07-27T21:54:07.223Z,23.83
2022-07-27T21:56:50.481Z,24.57
2022-07-27T21:59:24.985Z,21.93
2022-07-27T22:02:02.260Z,23.27
2022-07-27T22:04:36.730Z,22.03
2022-07-27T22:07:16.337Z,21.43
2022-07-27T22:09:53.227Z,20.83
2022-07-27T22:12:28.152Z,21.27
2022-07-27T22:15:21.685Z,22.97
2022-07-27T22:17:55.489Z,25.40
2022-07-27T22:20:29.285Z,20.77
2022-07-27T22:23:03.056Z,22.50
2022-07-27T22:25:36.767Z,20.37
2022-07-27T22:28:12.042Z,20.47
2022-07-27T22:31:19.762Z,23.87
2022-07-27T22:33:39.573Z,20.30
2022-07-27T22:36:18.791Z,21.93
2022-07-27T22:38:52.304Z,18.97
2022-07-27T22:41:26.130Z,18.57
2022-07-27T22:44:20.367Z,14.40
2022-07-27T22:46:54.527Z,16.00
2022-07-27T22:49:28.465Z,17.42
2022-07-27T22:52:01.957Z,16.95
2022-07-27T22:57:30.339Z,16.92
2022-07-27T23:00:07.433Z,14.05
2022-07-27T23:02:40.830Z,16.50
2022-07-27T23:05:14.923Z,16.15
2022-07-27T23:07:49.152Z,16.38
2022-07-27T23:10:43.555Z,17.23
2022-07-27T23:13:19.796Z,10.63
2022-07-27T23:15:56.084Z,18.65
2022-07-27T23:18:29.143Z,11.25
2022-07-27T23:21:06.190Z,11.00
2022-07-27T23:23:41.055Z,12.95
2022-07-27T23:26:27.822Z,11.23
2022-07-27T23:29:01.135Z,15.43
2022-07-27T23:31:36.971Z,11.05
2022-07-27T23:34:10.633Z,14.82
2022-07-27T23:36:47.334Z,13.65
2022-07-27T23:39:21.033Z,10.90
2022-07-27T23:41:54.867Z,15.15
2022-07-27T23:44:29.025Z,14.07
2022-07-27T23:47:05.875Z,10.80
2022-07-27T23:49:39.526Z,9.60
2022-07-27T23:52:12.874Z,10.55
2022-07-27T23:54:46.781Z,10.85
2022-07-27T23:57:21.121Z,13.73
2022-07-27T23:59:54.232Z,10.05
